Time;durP1;ratioP1;P1;durP2;ratioP2;P2;SDS_P1;SDS_P2;PMS_P1;PMS_P2;Temp;Humidity;BMP_temperature;BMP_pressure;BME280_temperature;BME280_humidity;BME280_pressure;Samples;Min_cycle;Max_cycle;Signal;HPM_P1;HPM_P2
2022/05/16 00:02:14;;;;;;;4.43;2.90;;;;;;;14.11;100.00;101854.94;4998629;28;20961;-70
2022/05/16 00:04:42;;;;;;;4.40;2.10;;;;;;;14.23;100.00;101839.91;4998312;28;20216;-69
2022/05/16 00:07:08;;;;;;;3.63;2.23;;;;;;;14.13;100.00;101846.69;5010903;28;20278;-69
2022/05/16 00:09:33;;;;;;;2.73;1.73;;;;;;;14.15;100.00;101807.69;5002144;28;20440;-69
2022/05/16 00:11:59;;;;;;;3.87;2.10;;;;;;;13.57;100.00;101777.41;4999074;28;20673;-69
2022/05/16 00:14:24;;;;;;;3.40;2.40;;;;;;;14.12;100.00;101840.44;5003698;28;20273;-69
2022/05/16 00:16:50;;;;;;;2.93;1.60;;;;;;;14.04;100.00;101837.91;5000125;28;20190;-69
2022/05/16 00:19:15;;;;;;;2.60;1.80;;;;;;;14.23;100.00;101839.03;5000577;28;20188;-69
2022/05/16 00:21:41;;;;;;;3.73;2.30;;;;;;;14.00;100.00;101829.38;5000400;28;20239;-69
2022/05/16 00:24:06;;;;;;;4.20;2.03;;;;;;;14.12;100.00;101835.06;4997819;28;20197;-69
2022/05/16 00:26:33;;;;;;;3.50;2.03;;;;;;;14.12;100.00;101836.94;5000477;28;20271;-69
2022/05/16 00:28:58;;;;;;;5.67;2.33;;;;;;;14.16;100.00;101816.59;5000054;28;20189;-69
2022/05/16 00:31:23;;;;;;;2.50;1.90;;;;;;;14.22;100.00;101818.50;5000419;28;20557;-69
2022/05/16 00:33:49;;;;;;;4.67;2.13;;;;;;;13.87;100.00;101780.72;5004476;28;20189;-69
2022/05/16 00:36:14;;;;;;;4.63;2.17;;;;;;;14.17;100.00;101816.38;4998973;28;20251;-69
2022/05/16 00:38:40;;;;;;;3.83;2.00;;;;;;;14.13;100.00;101807.03;5001929;28;20196;-69
2022/05/16 00:41:05;;;;;;;4.53;1.53;;;;;;;14.03;100.00;101798.47;4995547;28;20316;-69
2022/05/16 00:44:03;;;;;;;2.97;1.67;;;;;;;14.10;100.00;101812.81;5000402;28;20201;-70
2022/05/16 00:46:31;;;;;;;2.93;1.67;;;;;;;13.42;100.00;101720.88;4972440;28;20264;-70
2022/05/16 00:48:58;;;;;;;2.37;1.73;;;;;;;14.16;100.00;101817.44;5001213;28;20448;-70
2022/05/16 00:51:27;;;;;;;2.93;1.60;;;;;;;13.81;100.00;101807.66;5000510;28;20507;-70
2022/05/16 00:53:57;;;;;;;4.90;1.50;;;;;;;13.89;100.00;101816.44;4996762;28;20574;-70
2022/05/16 00:56:25;;;;;;;2.47;1.50;;;;;;;13.93;100.00;101806.06;5004384;28;20479;-70
2022/05/16 00:58:51;;;;;;;3.33;1.40;;;;;;;13.84;100.00;101796.47;5004005;28;20513;-70
2022/05/16 01:06:48;;;;;;;2.13;1.63;;;;;;;13.25;100.00;101679.06;4997195;28;20656;-71
2022/05/16 01:09:13;;;;;;;3.40;1.53;;;;;;;14.07;100.00;101799.75;5000360;28;20535;-69
2022/05/16 01:11:39;;;;;;;5.30;1.30;;;;;;;13.88;100.00;101778.84;5002605;28;20211;-69
2022/05/16 01:14:05;;;;;;;2.50;1.80;;;;;;;13.76;100.00;101736.25;5002128;28;20276;-69
2022/05/16 01:16:31;;;;;;;3.30;1.30;;;;;;;14.12;100.00;101789.19;5001738;28;20590;-69
2022/05/16 01:18:56;;;;;;;2.67;1.20;;;;;;;13.75;100.00;101744.56;5000132;28;20475;-69
2022/05/16 01:21:34;;;;;;;2.40;1.43;;;;;;;14.02;100.00;101781.44;5000826;28;20598;-70
2022/05/16 01:24:18;;;;;;;4.20;2.13;;;;;;;13.94;100.00;101764.56;4998199;28;20181;-69
2022/05/16 01:26:43;;;;;;;2.07;1.30;;;;;;;14.09;100.00;101772.53;4996289;28;21015;-69
2022/05/16 01:29:09;;;;;;;3.47;1.37;;;;;;;13.59;100.00;101697.16;4993655;28;20466;-70
2022/05/16 01:31:35;;;;;;;2.07;1.60;;;;;;;13.82;100.00;101740.03;5001606;28;20291;-70
2022/05/16 01:34:02;;;;;;;2.67;1.60;;;;;;;13.88;100.00;101774.28;4998704;28;20575;-70
2022/05/16 01:36:27;;;;;;;2.00;1.50;;;;;;;14.06;100.00;101768.41;5000561;28;20494;-70
2022/05/16 01:38:53;;;;;;;3.27;1.40;;;;;;;13.74;100.00;101746.44;4994395;23;20538;-80
2022/05/16 01:41:22;;;;;;;2.90;1.37;;;;;;;13.63;100.00;101738.06;4979949;28;20219;-81
2022/05/16 01:43:54;;;;;;;2.37;1.53;;;;;;;13.88;100.00;101770.78;4980298;28;20205;-81
2022/05/16 01:46:24;;;;;;;1.93;1.40;;;;;;;13.87;100.00;101774.50;4976587;28;20479;-82
2022/05/16 01:48:52;;;;;;;3.00;1.23;;;;;;;13.78;100.00;101776.53;4976366;28;20597;-81
2022/05/16 01:51:18;;;;;;;2.90;1.53;;;;;;;13.56;100.00;101767.66;4974529;28;20953;-80
2022/05/16 01:53:44;;;;;;;4.37;1.70;;;;;;;13.76;100.00;101770.50;4975696;28;20487;-82
2022/05/16 01:56:09;;;;;;;1.80;1.20;;;;;;;13.50;100.00;101768.44;4974297;28;20441;-79
2022/05/16 01:58:35;;;;;;;2.30;1.20;;;;;;;13.51;100.00;101753.91;4974705;28;20522;-79
2022/05/16 02:01:02;;;;;;;2.57;1.37;;;;;;;13.70;100.00;101774.81;4974402;28;20187;-80
2022/05/16 02:03:28;;;;;;;4.07;1.30;;;;;;;13.47;100.00;101769.66;4978759;28;20190;-81
2022/05/16 02:05:53;;;;;;;3.33;1.50;;;;;;;13.58;100.00;101765.59;4976543;28;20477;-82
2022/05/16 02:08:19;;;;;;;3.97;1.60;;;;;;;13.25;100.00;101738.34;4974966;28;20855;-82
2022/05/16 02:10:46;;;;;;;1.87;1.33;;;;;;;13.45;100.00;101725.06;4975630;28;20257;-80
2022/05/16 02:13:11;;;;;;;2.90;1.50;;;;;;;13.27;100.00;101702.13;4974697;28;20190;-80
2022/05/16 02:15:38;;;;;;;6.37;1.33;;;;;;;13.48;100.00;101757.88;4976527;28;20468;-83
2022/05/16 02:18:05;;;;;;;3.80;1.20;;;;;;;13.67;100.00;101753.63;4977987;28;20926;-79
2022/05/16 02:20:30;;;;;;;2.60;1.30;;;;;;;13.60;100.00;101754.59;4975634;28;20535;-81
2022/05/16 02:25:43;;;;;;;3.50;1.60;;;;;;;13.73;100.00;101752.84;4976151;28;20220;-82
2022/05/16 02:28:11;;;;;;;2.90;1.33;;;;;;;13.82;100.00;101742.72;4975340;28;20970;-83
2022/05/16 02:30:37;;;;;;;5.37;1.63;;;;;;;13.63;100.00;101711.09;4976451;28;20436;-81
2022/05/16 02:33:03;;;;;;;2.47;1.70;;;;;;;13.67;100.00;101750.09;4975211;28;20528;-82
2022/05/16 02:35:30;;;;;;;1.60;1.27;;;;;;;13.54;100.00;101745.47;4974774;28;20445;-81
2022/05/16 02:37:58;;;;;;;2.80;1.23;;;;;;;13.73;100.00;101746.63;4975087;28;20245;-77
2022/05/16 02:40:28;;;;;;;2.80;1.10;;;;;;;13.72;100.00;101744.97;4976125;28;20452;-79
2022/05/16 02:42:53;;;;;;;1.87;1.10;;;;;;;12.75;100.00;101592.94;4975341;28;20450;-79
2022/05/16 02:45:19;;;;;;;3.60;1.50;;;;;;;13.24;100.00;101688.19;4975739;28;20871;-80
2022/05/16 02:47:45;;;;;;;2.53;1.27;;;;;;;12.84;100.00;101629.47;4976688;28;20237;-80
2022/05/16 02:50:10;;;;;;;2.70;1.50;;;;;;;13.23;100.00;101705.38;4977998;28;20221;-79
2022/05/16 02:52:36;;;;;;;5.67;2.07;;;;;;;13.65;100.00;101720.63;4976136;28;20722;-80
2022/05/16 02:55:02;;;;;;;2.77;1.70;;;;;;;12.99;100.00;101621.31;4973718;28;20190;-80
2022/05/16 02:57:31;;;;;;;5.00;2.00;;;;;;;13.27;100.00;101685.13;4974466;28;20319;-82
2022/05/16 02:59:58;;;;;;;1.50;1.13;;;;;;;13.32;100.00;101713.16;4974607;28;20492;-81
2022/05/16 03:02:24;;;;;;;3.37;1.40;;;;;;;12.74;100.00;101638.91;4977288;28;20450;-79
2022/05/16 03:04:49;;;;;;;2.93;1.40;;;;;;;12.82;100.00;101666.53;4976999;28;20479;-79
2022/05/16 03:07:15;;;;;;;1.87;1.30;;;;;;;13.27;100.00;101683.25;4974941;28;20487;-80
2022/05/16 03:09:40;;;;;;;2.37;1.00;;;;;;;13.30;100.00;101676.66;4977334;28;20255;-81
2022/05/16 03:12:06;;;;;;;3.50;1.10;;;;;;;13.36;100.00;101672.34;4978915;28;20197;-79
2022/05/16 03:14:32;;;;;;;2.73;1.50;;;;;;;13.40;100.00;101700.59;4975721;28;20193;-81
2022/05/16 03:16:58;;;;;;;1.33;1.23;;;;;;;13.32;100.00;101698.84;4975162;28;20440;-80
2022/05/16 03:19:23;;;;;;;2.30;1.30;;;;;;;13.27;100.00;101660.88;4972375;28;20190;-80
2022/05/16 03:21:48;;;;;;;2.50;1.17;;;;;;;13.32;100.00;101675.44;4975869;28;20684;-80
2022/05/16 03:24:14;;;;;;;3.00;1.27;;;;;;;13.59;100.00;101680.16;4975494;28;20670;-79
2022/05/16 03:26:39;;;;;;;2.70;1.30;;;;;;;12.94;100.00;101612.16;4973160;28;20265;-82
2022/05/16 03:29:13;;;;;;;2.57;1.43;;;;;;;13.47;100.00;101664.53;4969798;28;20190;-81
2022/05/16 03:31:40;;;;;;;3.40;1.60;;;;;;;13.50;100.00;101683.00;4977735;28;20253;-81
2022/05/16 03:34:07;;;;;;;2.57;1.30;;;;;;;13.28;100.00;101666.09;4974706;28;20940;-82
2022/05/16 03:36:33;;;;;;;1.80;1.27;;;;;;;13.48;100.00;101682.41;4974249;28;20442;-81
2022/05/16 03:42:03;;;;;;;4.30;1.60;;;;;;;13.08;100.00;101648.91;4925901;29;20828;-79
2022/05/16 03:44:28;;;;;;;3.53;1.67;;;;;;;12.89;100.00;101612.72;4920145;29;20455;-80
2022/05/16 03:46:54;;;;;;;4.77;1.70;;;;;;;13.36;100.00;101653.47;4938701;28;20316;-79
2022/05/16 03:49:19;;;;;;;2.87;1.47;;;;;;;13.37;100.00;101647.09;4980043;28;20193;-79
2022/05/16 03:51:45;;;;;;;1.80;1.30;;;;;;;13.28;100.00;101674.19;4980156;28;20741;-78
2022/05/16 03:54:10;;;;;;;3.30;1.40;;;;;;;13.45;100.00;101674.72;4977793;28;20199;-80
2022/05/16 03:56:36;;;;;;;3.80;1.20;;;;;;;13.28;100.00;101674.19;4981083;28;20186;-79
2022/05/16 03:59:02;;;;;;;2.23;1.30;;;;;;;13.20;100.00;101651.91;4978245;28;20202;-82
2022/05/16 04:01:28;;;;;;;1.77;1.30;;;;;;;13.01;100.00;101613.84;4974435;28;20198;-81
2022/05/16 04:03:54;;;;;;;4.53;1.90;;;;;;;13.45;100.00;101673.84;4982265;28;20447;-82
2022/05/16 04:06:19;;;;;;;4.80;1.50;;;;;;;13.06;100.00;101632.13;4974842;28;20591;-81
2022/05/16 04:08:46;;;;;;;1.97;1.40;;;;;;;13.14;100.00;101650.00;4978161;28;20473;-80
2022/05/16 04:11:16;;;;;;;7.87;1.47;;;;;;;13.22;100.00;101664.16;4993736;28;20181;-81
2022/05/16 04:13:42;;;;;;;2.40;1.40;;;;;;;12.69;100.00;101582.94;4984342;28;20520;-80
2022/05/16 04:16:08;;;;;;;1.83;1.30;;;;;;;12.93;100.00;101615.84;4983138;28;20426;-80
2022/05/16 04:18:33;;;;;;;3.33;1.37;;;;;;;13.43;100.00;101659.75;4979550;28;20494;-79
2022/05/16 04:21:00;;;;;;;2.07;1.50;;;;;;;13.43;100.00;101649.00;4984124;28;20730;-81
2022/05/16 04:23:25;;;;;;;2.30;1.50;;;;;;;13.55;100.00;101650.09;4982329;28;20192;-79
2022/05/16 04:25:51;;;;;;;3.00;1.57;;;;;;;13.37;100.00;101641.69;4981374;28;20464;-78
2022/05/16 04:28:16;;;;;;;2.23;1.30;;;;;;;13.49;100.00;101648.19;4978795;28;20796;-80
2022/05/16 04:30:42;;;;;;;2.50;1.50;;;;;;;13.48;100.00;101647.38;4980464;28;20195;-78
2022/05/16 04:33:08;;;;;;;4.00;1.67;;;;;;;13.39;100.00;101645.00;4982022;28;20198;-80
2022/05/16 04:35:36;;;;;;;3.40;1.50;;;;;;;13.54;100.00;101646.56;4994160;28;20205;-79
2022/05/16 04:38:03;;;;;;;2.70;1.47;;;;;;;13.77;100.00;101646.28;4984100;28;20217;-79
2022/05/16 04:40:28;;;;;;;1.67;1.30;;;;;;;13.60;100.00;101646.78;4984147;28;20441;-80
2022/05/16 04:42:54;;;;;;;2.97;1.77;;;;;;;13.55;100.00;101625.81;4978535;28;20468;-81
2022/05/16 04:45:25;;;;;;;3.70;1.27;;;;;;;13.59;100.00;101648.66;4976474;28;20672;-80
2022/05/16 04:47:55;;;;;;;3.33;1.47;;;;;;;13.53;100.00;101657.53;4978324;28;20214;-81
2022/05/16 04:50:28;;;;;;;2.43;1.30;;;;;;;13.69;100.00;101659.09;4979944;28;20964;-78
2022/05/16 04:52:55;;;;;;;2.33;1.60;;;;;;;13.73;100.00;101649.56;4983932;28;20452;-80
2022/05/16 04:55:21;;;;;;;2.53;1.60;;;;;;;13.89;100.00;101659.19;4979953;28;20456;-77
2022/05/16 04:57:46;;;;;;;2.10;1.37;;;;;;;13.73;100.00;101660.34;4984036;28;20496;-79
2022/05/16 05:00:13;;;;;;;3.00;1.80;;;;;;;13.84;100.00;101661.66;4983817;28;20209;-82
2022/05/16 05:02:40;;;;;;;3.80;1.63;;;;;;;13.64;100.00;101634.59;4980348;28;20186;-78
2022/05/16 05:05:07;;;;;;;3.80;1.70;;;;;;;13.87;100.00;101659.38;4983169;28;20847;-80
2022/05/16 05:07:32;;;;;;;2.17;1.63;;;;;;;13.78;100.00;101634.44;4983227;28;20480;-79
2022/05/16 05:15:26;;;;;;;3.20;1.70;;;;;;;14.02;100.00;101649.25;4981693;28;20448;-79
2022/05/16 05:17:51;;;;;;;4.70;1.60;;;;;;;13.61;100.00;101563.03;4982533;28;20453;-79
2022/05/16 05:20:18;;;;;;;4.07;1.27;;;;;;;13.76;100.00;101587.97;4977437;28;20197;-79
2022/05/16 05:22:47;;;;;;;3.40;1.87;;;;;;;14.09;100.00;101646.63;4982434;28;20636;-78
2022/05/16 05:25:17;;;;;;;2.30;1.60;;;;;;;13.54;100.00;101554.09;4981855;28;20841;-79
2022/05/16 05:27:44;;;;;;;5.33;1.80;;;;;;;14.16;100.00;101650.16;4983709;28;21472;-79
2022/05/16 05:30:12;;;;;;;8.27;1.57;;;;;;;14.16;100.00;101649.31;4985699;28;20438;-82
2022/05/16 05:32:37;;;;;;;1.87;1.10;;;;;;;14.13;100.00;101647.03;4979138;28;20453;-79
2022/05/16 05:35:05;;;;;;;2.07;1.50;;;;;;;14.23;100.00;101655.56;4983297;28;20436;-78
2022/05/16 05:37:31;;;;;;;2.30;1.63;;;;;;;14.13;100.00;101642.47;4982917;28;20221;-78
2022/05/16 05:40:00;;;;;;;3.50;1.40;;;;;;;14.17;100.00;101645.56;4981205;28;20449;-79
2022/05/16 05:42:27;;;;;;;4.10;1.90;;;;;;;14.21;100.00;101642.28;4982878;28;20949;-79
2022/05/16 05:44:53;;;;;;;3.37;1.53;;;;;;;14.31;100.00;101649.97;4982795;28;20452;-79
2022/05/16 05:47:19;;;;;;;4.00;1.57;;;;;;;14.46;100.00;101655.19;4979658;28;20547;-81
2022/05/16 05:49:44;;;;;;;2.57;1.30;;;;;;;14.34;100.00;101627.97;4981160;28;20190;-78
2022/05/16 05:52:10;;;;;;;5.80;1.70;;;;;;;14.53;100.00;101655.28;4981453;28;20982;-81
2022/05/16 05:54:35;;;;;;;4.80;1.60;;;;;;;14.41;100.00;101630.72;4979239;28;20272;-79
2022/05/16 05:57:02;;;;;;;4.47;1.87;;;;;;;14.46;100.00;101633.59;4976925;28;20296;-80
2022/05/16 05:59:28;;;;;;;2.30;1.43;;;;;;;14.20;100.00;101592.06;4980644;28;20188;-79
2022/05/16 06:01:53;;;;;;;3.67;1.77;;;;;;;14.49;100.00;101644.00;4983509;28;20504;-81
2022/05/16 06:04:19;;;;;;;4.93;1.80;;;;;;;14.58;100.00;101641.97;4981537;28;20446;-78
2022/05/16 06:06:46;;;;;;;6.90;2.17;;;;;;;14.61;100.00;101628.03;4979034;28;20214;-81
2022/05/16 06:09:12;;;;;;;2.87;1.50;;;;;;;14.58;100.00;101607.72;4979323;28;20201;-78
2022/05/16 06:11:37;;;;;;;3.67;1.80;;;;;;;14.85;100.00;101650.94;4978963;28;21020;-80
2022/05/16 06:14:05;;;;;;;3.20;1.70;;;;;;;14.60;100.00;101616.41;4980449;28;20709;-79
2022/05/16 06:16:30;;;;;;;2.90;1.80;;;;;;;14.95;100.00;101653.22;4978717;28;20190;-79
2022/05/16 06:18:56;;;;;;;3.83;1.60;;;;;;;15.04;100.00;101660.06;4979328;28;20896;-78
2022/05/16 06:21:22;;;;;;;4.43;1.70;;;;;;;15.09;100.00;101642.19;4973702;28;20667;-79
2022/05/16 06:23:48;;;;;;;1.80;1.40;;;;;;;14.57;100.00;101553.91;4976139;28;20205;-78
2022/05/16 06:26:14;;;;;;;3.87;1.97;;;;;;;14.66;100.00;101541.88;4974901;28;20942;-80
2022/05/16 06:28:39;;;;;;;2.50;1.30;;;;;;;15.05;100.00;101573.41;4978375;28;20206;-79
2022/05/16 06:31:06;;;;;;;2.50;1.50;;;;;;;15.36;100.00;101615.97;4979207;28;20209;-78
2022/05/16 06:33:31;;;;;;;3.77;1.77;;;;;;;14.69;100.00;101515.31;4993108;28;20200;-79
2022/05/16 06:35:59;;;;;;;6.80;2.00;;;;;;;15.44;100.00;101608.66;4979741;28;20453;-79
2022/05/16 06:38:28;;;;;;;5.20;2.13;;;;;;;15.38;100.00;101600.34;4975272;28;20702;-79
2022/05/16 06:40:55;;;;;;;2.43;1.30;;;;;;;14.95;100.00;101520.84;4979214;28;20905;-80
2022/05/16 06:43:22;;;;;;;4.87;1.80;;;;;;;15.33;100.00;101562.34;4978918;28;20452;-79
2022/05/16 06:45:48;;;;;;;4.33;1.60;;;;;;;15.62;100.00;101606.09;4979930;28;20851;-79
2022/05/16 06:48:14;;;;;;;2.97;1.53;;;;;;;15.26;100.00;101537.19;4980185;28;20472;-79
2022/05/16 06:50:41;;;;;;;5.63;1.70;;;;;;;15.37;100.00;101562.72;4976076;28;20445;-79
2022/05/16 06:53:11;;;;;;;4.40;1.93;;;;;;;15.25;100.00;101542.81;4980766;28;20673;-78
2022/05/16 06:55:37;;;;;;;2.40;1.50;;;;;;;15.59;100.00;101599.25;4977978;28;20437;-78
2022/05/16 06:58:02;;;;;;;2.60;1.60;;;;;;;15.55;100.00;101584.50;4982896;28;20472;-79
2022/05/16 07:00:28;;;;;;;3.20;1.50;;;;;;;15.59;100.00;101590.31;4980396;28;20193;-77
2022/05/16 07:02:54;;;;;;;5.53;1.90;;;;;;;15.33;100.00;101548.81;4982260;28;20665;-79
2022/05/16 07:05:19;;;;;;;2.77;1.43;;;;;;;15.78;100.00;101610.25;4982404;28;20275;-78
2022/05/16 07:07:45;;;;;;;3.97;1.77;;;;;;;15.41;100.00;101553.13;4978928;28;20293;-77
2022/05/16 07:10:10;;;;;;;2.50;1.50;;;;;;;15.80;100.00;101600.88;4979190;28;20677;-78
2022/05/16 07:12:36;;;;;;;3.13;1.57;;;;;;;15.60;100.00;101570.34;4982892;28;20654;-78
2022/05/16 07:15:02;;;;;;;3.90;1.80;;;;;;;15.49;100.00;101552.91;4980216;28;20193;-78
2022/05/16 07:17:28;;;;;;;7.10;2.03;;;;;;;15.86;100.00;101601.88;4982904;28;20894;-79
2022/05/16 07:19:53;;;;;;;8.00;2.00;;;;;;;15.79;100.00;101590.25;4983003;28;20451;-77
2022/05/16 07:22:25;;;;;;;5.40;2.30;;;;;;;15.97;100.00;101603.91;4983068;28;20661;-77
2022/05/16 07:24:53;;;;;;;4.20;2.03;;;;;;;15.88;100.00;101588.97;4981721;28;20299;-80
2022/05/16 07:30:05;;;;;;;4.57;2.00;;;;;;;15.88;100.00;101561.06;4981964;28;20413;-78
2022/05/16 07:32:42;;;;;;;2.60;1.90;;;;;;;15.68;100.00;101509.78;4983021;28;20452;-78
2022/05/16 07:35:14;;;;;;;5.83;2.00;;;;;;;16.17;100.00;101578.59;4981237;28;20465;-79
2022/05/16 07:37:40;;;;;;;5.60;1.77;;;;;;;16.40;100.00;101596.97;4979478;28;20496;-81
2022/05/16 07:40:08;;;;;;;7.47;1.93;;;;;;;16.47;100.00;101593.19;4991556;28;20505;-79
2022/05/16 07:42:35;;;;;;;5.50;2.40;;;;;;;16.43;100.00;101589.28;4973214;28;20448;-78
2022/05/16 07:45:01;;;;;;;4.80;2.17;;;;;;;16.62;100.00;101594.75;4979176;28;20455;-79
2022/05/16 07:47:30;;;;;;;3.57;1.80;;;;;;;16.38;100.00;101532.25;4979581;28;20480;-80
2022/05/16 07:49:56;;;;;;;2.90;1.77;;;;;;;16.09;100.00;101476.06;4980879;28;20946;-80
2022/05/16 07:52:22;;;;;;;6.33;2.23;;;;;;;16.79;100.00;101590.47;4980209;28;20918;-79
2022/05/16 07:54:47;;;;;;;4.17;1.80;;;;;;;16.62;100.00;101529.75;4979808;28;20498;-79
2022/05/16 07:57:13;;;;;;;4.53;1.83;;;;;;;16.75;100.00;101545.03;4982563;28;20345;-80
2022/05/16 07:59:39;;;;;;;3.83;2.00;;;;;;;17.00;100.00;101580.28;4981583;28;20749;-80
2022/05/16 08:02:04;;;;;;;6.37;1.90;;;;;;;17.08;100.00;101572.69;4979552;28;20208;-77
2022/05/16 08:04:30;;;;;;;6.60;2.30;;;;;;;16.81;100.00;101523.34;4979711;28;20441;-78
2022/05/16 08:06:55;;;;;;;3.70;2.10;;;;;;;17.23;100.00;101572.31;4977207;28;20902;-76
2022/05/16 08:12:05;;;;;;;4.90;2.07;;;;;;;17.24;100.00;101556.88;4980896;28;21206;-78
2022/05/16 08:14:30;;;;;;;3.30;1.80;;;;;;;17.12;100.00;101505.28;4979776;28;21414;-79
2022/05/16 08:16:56;;;;;;;6.13;2.10;;;;;;;17.51;100.00;101558.22;4975631;28;20536;-79
2022/05/16 08:19:21;;;;;;;2.77;1.80;;;;;;;17.41;100.00;101533.53;4979778;28;20217;-78
2022/05/16 08:21:48;;;;;;;3.90;1.73;;;;;;;17.80;100.00;101543.06;4978264;28;20244;-79
2022/05/16 08:24:15;;;;;;;3.77;1.73;;;;;;;17.53;100.00;101507.31;4980437;28;20201;-79
2022/05/16 08:26:40;;;;;;;4.83;2.07;;;;;;;17.89;100.00;101549.00;4982727;28;20497;-79
2022/05/16 08:29:05;;;;;;;6.70;2.37;;;;;;;17.10;100.00;101426.09;4982615;28;20935;-77
2022/05/16 08:31:31;;;;;;;5.43;1.70;;;;;;;17.97;100.00;101556.00;4982338;28;20714;-75
2022/05/16 08:33:57;;;;;;;12.53;2.57;;;;;;;17.81;100.00;101517.59;4982917;28;20866;-77
2022/05/16 08:41:56;;;;;;;5.57;2.00;;;;;;;18.25;100.00;101558.94;4982555;28;20445;-77
2022/05/16 08:44:28;;;;;;;3.50;1.80;;;;;;;18.21;100.00;101555.00;4980913;28;20440;-82
2022/05/16 08:47:10;;;;;;;8.20;2.03;;;;;;;18.13;100.00;101520.03;4978693;28;20547;-81
2022/05/16 08:49:42;;;;;;;6.70;2.17;;;;;;;18.52;100.00;101556.59;4980330;28;20453;-82
2022/05/16 08:52:29;;;;;;;5.00;1.97;;;;;;;18.51;100.00;101544.09;4983337;28;20446;-82
2022/05/16 08:55:04;;;;;;;6.27;2.30;;;;;;;18.44;100.00;101523.53;4981536;28;20444;-81
2022/05/16 08:57:41;;;;;;;5.70;2.80;;;;;;;18.59;100.00;101540.19;4988194;28;20819;-92
2022/05/16 09:00:19;;;;;;;3.50;1.77;;;;;;;18.58;100.00;101516.81;4987585;28;20428;-88
2022/05/16 09:02:48;;;;;;;5.10;1.83;;;;;;;18.39;100.00;101469.91;4982192;28;22593;-82
2022/05/16 09:05:44;;;;;;;6.13;2.07;;;;;;;18.89;100.00;101537.41;4982118;28;20449;-82
2022/05/16 09:08:23;;;;;;;5.30;2.20;;;;;;;18.72;100.00;101531.00;4984165;28;20556;-82
2022/05/16 09:11:16;;;;;;;6.00;1.70;;;;;;;18.84;100.00;101537.28;4982883;28;20938;-83
2022/05/16 09:13:47;;;;;;;3.33;1.73;;;;;;;18.88;100.00;101535.72;4979006;28;20436;-82
2022/05/16 09:16:38;;;;;;;3.67;1.80;;;;;;;18.81;100.00;101534.22;4982434;28;20850;-82
2022/05/16 09:19:22;;;;;;;3.40;1.70;;;;;;;18.98;100.00;101535.16;4979277;28;20453;-82
2022/05/16 09:22:12;;;;;;;5.43;1.80;;;;;;;18.90;100.00;101539.06;4980882;28;20854;-82
2022/05/16 09:25:08;;;;;;;3.37;1.77;;;;;;;19.03;100.00;101531.72;4983236;28;20476;-81
2022/05/16 09:30:28;;;;;;;7.37;1.90;;;;;;;19.19;100.00;101539.97;4981392;28;20496;-83
2022/05/16 09:33:24;;;;;;;6.37;1.93;;;;;;;19.42;100.00;101530.09;4981506;28;20437;-81
2022/05/16 09:36:05;;;;;;;5.60;1.90;;;;;;;19.69;100.00;101529.56;4970950;28;20454;-81
2022/05/16 09:38:32;;;;;;;5.40;2.07;;;;;;;19.66;100.00;101533.59;4978313;28;20995;-80
2022/05/16 09:41:01;;;;;;;4.40;1.80;;;;;;;19.71;100.00;101535.59;4978538;28;20860;-82
2022/05/16 09:43:31;;;;;;;5.13;1.90;;;;;;;19.79;100.00;101524.31;4981770;28;20469;-81
2022/05/16 09:46:05;;;;;;;3.83;1.77;;;;;;;19.76;100.00;101522.91;4982291;28;20476;-82
2022/05/16 09:48:31;;;;;;;4.50;2.07;;;;;;;19.67;100.00;101485.44;4996560;28;21488;-80
2022/05/16 09:51:06;;;;;;;5.90;2.13;;;;;;;19.58;100.00;101479.53;4980514;28;20444;-80
2022/05/16 09:53:44;;;;;;;4.90;2.00;;;;;;;19.86;100.00;101531.25;4965850;28;20692;-81
2022/05/16 09:56:25;;;;;;;4.23;2.33;;;;;;;19.89;100.00;101531.84;4982269;28;21239;-80
2022/05/16 09:58:55;;;;;;;6.57;2.03;;;;;;;20.01;100.00;101538.88;4982281;28;20470;-80
2022/05/16 10:01:44;;;;;;;7.90;2.13;;;;;;;19.93;100.00;101519.38;4980041;28;20437;-80
2022/05/16 10:04:14;;;;;;;4.77;2.60;;;;;;;20.17;100.00;101533.72;4979816;28;20447;-81
2022/05/16 10:06:43;;;;;;;3.97;1.90;;;;;;;20.09;100.00;101543.94;4984532;28;20474;-80
2022/05/16 10:09:14;;;;;;;5.20;1.80;;;;;;;20.09;100.00;101532.22;4980894;28;20495;-81
2022/05/16 10:11:42;;;;;;;4.10;1.77;;;;;;;19.92;100.00;101501.41;4981753;28;20491;-81
2022/05/16 10:14:08;;;;;;;5.93;2.10;;;;;;;20.32;100.00;101537.50;4984028;28;20468;-81
2022/05/16 10:16:36;;;;;;;4.33;1.53;;;;;;;20.07;100.00;101510.66;4982886;28;20516;-82
2022/05/16 10:19:10;;;;;;;5.90;1.83;;;;;;;20.32;100.00;101545.69;4984418;28;20437;-82
2022/05/16 10:21:50;;;;;;;5.60;1.90;;;;;;;20.36;100.00;101539.75;4984823;28;20436;-82
2022/05/16 10:24:17;;;;;;;6.67;1.70;;;;;;;20.30;100.00;101533.38;4980358;28;20453;-81
2022/05/16 10:26:46;;;;;;;6.53;2.13;;;;;;;20.39;100.00;101523.72;4981096;28;21113;-81
2022/05/16 10:29:14;;;;;;;4.27;1.70;;;;;;;20.50;100.00;101528.25;4983996;28;21009;-82
2022/05/16 10:34:43;;;;;;;6.20;1.87;;;;;;;20.72;100.00;101533.00;4977955;28;20491;-79
2022/05/16 10:37:10;;;;;;;4.43;1.67;;;;;;;20.63;100.00;101529.06;4980037;28;20472;-81
2022/05/16 10:39:41;;;;;;;4.87;1.97;;;;;;;20.69;100.00;101531.59;4982871;28;20925;-81
2022/05/16 10:42:12;;;;;;;8.77;1.90;;;;;;;20.93;100.00;101526.75;4981334;28;20949;-81
2022/05/16 10:44:41;;;;;;;5.10;2.30;;;;;;;20.96;100.00;101519.97;4981926;28;20956;-81
2022/05/16 10:47:21;;;;;;;5.40;2.20;;;;;;;20.65;100.00;101472.38;4981343;28;20804;-82
2022/05/16 10:50:02;;;;;;;3.63;1.93;;;;;;;21.06;100.00;101511.09;4983285;28;21298;-80
2022/05/16 10:52:49;;;;;;;5.10;2.13;;;;;;;21.13;100.00;101514.50;4978201;28;20441;-79
2022/05/16 10:55:15;;;;;;;5.77;1.80;;;;;;;21.11;100.00;101497.53;4980847;28;20971;-79
2022/05/16 10:58:04;;;;;;;3.13;1.63;;;;;;;21.26;100.00;101513.28;4972063;28;20464;-81
2022/05/16 11:01:12;;;;;;;4.03;2.00;;;;;;;21.33;100.00;101514.75;4975926;28;20350;-81
2022/05/16 11:04:07;;;;;;;7.40;2.47;;;;;;;21.40;100.00;101504.47;4973215;28;20452;-80
2022/05/16 11:06:51;;;;;;;4.60;1.87;;;;;;;21.66;100.00;101502.84;4982083;28;20472;-80
2022/05/16 11:09:30;;;;;;;5.33;1.60;;;;;;;21.73;100.00;101499.94;4984169;28;21169;-81
2022/05/16 11:12:16;;;;;;;5.73;1.90;;;;;;;21.80;100.00;101513.38;4981063;28;20449;-83
2022/05/16 11:15:08;;;;;;;7.70;2.10;;;;;;;21.63;100.00;101513.47;4982115;28;20456;-80
2022/05/16 11:17:36;;;;;;;4.53;1.87;;;;;;;21.75;100.00;101516.03;4976557;28;20529;-82
2022/05/16 11:20:18;;;;;;;7.30;1.77;;;;;;;21.97;100.00;101505.09;4979214;28;20476;-81
2022/05/16 11:22:52;;;;;;;5.73;1.90;;;;;;;21.98;100.00;101510.28;4978228;28;20447;-81
2022/05/16 11:25:51;;;;;;;5.30;2.40;;;;;;;22.03;100.00;101513.06;4978690;28;21315;-81
2022/05/16 11:28:29;;;;;;;3.87;1.90;;;;;;;22.09;100.00;101508.47;4981764;28;20568;-79
2022/05/16 11:30:59;;;;;;;7.30;2.13;;;;;;;22.20;100.00;101466.53;4980251;28;20444;-83
2022/05/16 11:33:44;;;;;;;4.73;1.73;;;;;;;22.29;100.00;101494.19;4981351;28;20524;-83
2022/05/16 11:36:30;;;;;;;5.27;2.53;;;;;;;22.23;100.00;101501.53;4974871;28;20432;-80
2022/05/16 11:39:18;;;;;;;6.00;2.20;;;;;;;22.07;100.00;101497.81;4980239;28;20484;-81
2022/05/16 11:41:56;;;;;;;6.03;2.20;;;;;;;21.99;100.00;101502.94;4979275;28;20452;-81
2022/05/16 11:44:36;;;;;;;5.47;2.03;;;;;;;22.08;100.00;101460.38;4977195;28;20441;-81
2022/05/16 11:47:36;;;;;;;5.90;1.87;;;;;;;22.31;100.00;101502.97;4981087;28;20483;-81
2022/05/16 11:50:13;;;;;;;4.20;1.80;;;;;;;22.61;100.00;101507.00;4970105;28;20473;-81
2022/05/16 11:53:00;;;;;;;7.67;2.63;;;;;;;22.65;100.00;101502.63;4980976;28;20590;-81
2022/05/16 12:01:33;;;;;;;3.30;1.60;;;;;;;22.73;100.00;101494.75;4986092;28;20479;-79
2022/05/16 12:04:04;;;;;;;5.37;1.80;;;;;;;22.94;100.00;101482.03;4985559;28;20435;-81
2022/05/16 12:06:35;;;;;;;4.93;1.90;;;;;;;23.00;100.00;101488.38;4986482;28;20469;-81
2022/05/16 12:09:14;;;;;;;6.27;1.90;;;;;;;23.05;100.00;101495.78;4984951;28;20464;-79